createdAt,value
2019-03-27T00:00:00.486Z,25.63
2019-03-27T00:02:27.909Z,25.53
2019-03-27T00:04:55.323Z,23.43
2019-03-27T00:07:22.762Z,24.57
2019-03-27T00:09:50.180Z,23.50
2019-03-27T00:12:17.586Z,24.67
2019-03-27T00:14:45.016Z,24.23
2019-03-27T00:17:12.429Z,23.77
2019-03-27T00:19:39.881Z,25.77
2019-03-27T00:22:07.280Z,25.03
2019-03-27T00:24:34.715Z,23.97
2019-03-27T00:27:02.129Z,25.33
2019-03-27T00:29:29.557Z,24.83
2019-03-27T00:31:57.053Z,23.23
2019-03-27T00:34:24.468Z,23.77
2019-03-27T00:36:51.843Z,25.10
2019-03-27T00:39:19.257Z,23.60
2019-03-27T00:41:46.673Z,23.93
2019-03-27T00:44:14.102Z,23.13
2019-03-27T00:46:41.517Z,23.30
2019-03-27T00:49:08.942Z,23.27
2019-03-27T00:51:36.346Z,23.17
2019-03-27T00:54:03.784Z,22.50
2019-03-27T00:56:31.204Z,22.93
2019-03-27T00:58:58.635Z,25.03
2019-03-27T01:01:26.050Z,24.97
2019-03-27T01:03:53.474Z,23.13
2019-03-27T01:06:20.892Z,23.50
2019-03-27T01:08:48.323Z,23.43
2019-03-27T01:11:15.730Z,24.63
2019-03-27T01:13:43.163Z,22.67
2019-03-27T01:16:10.575Z,21.53
2019-03-27T01:18:38.007Z,22.47
2019-03-27T01:21:05.419Z,23.60
2019-03-27T01:23:32.839Z,21.87
2019-03-27T01:26:00.270Z,24.73
2019-03-27T01:28:27.684Z,24.23
2019-03-27T01:30:55.116Z,24.03
2019-03-27T01:33:22.524Z,24.60
2019-03-27T01:35:49.966Z,23.50
2019-03-27T01:38:17.362Z,21.93
2019-03-27T01:40:44.788Z,24.77
2019-03-27T01:43:12.230Z,22.03
2019-03-27T01:45:52.154Z,24.93
2019-03-27T01:48:07.090Z,25.27
2019-03-27T01:50:34.534Z,25.63
2019-03-27T01:53:01.984Z,24.57
2019-03-27T01:55:29.405Z,23.17
2019-03-27T01:57:56.804Z,24.60
2019-03-27T02:00:24.232Z,21.70
2019-03-27T02:02:51.683Z,25.83
2019-03-27T02:05:19.089Z,25.40
2019-03-27T02:07:46.491Z,22.53
2019-03-27T02:10:13.925Z,22.00
2019-03-27T02:12:41.379Z,24.93
2019-03-27T02:15:08.767Z,26.37
2019-03-27T02:17:36.197Z,24.37
2019-03-27T02:20:03.645Z,23.67
2019-03-27T02:22:31.073Z,24.43
2019-03-27T02:24:58.499Z,24.67
2019-03-27T02:27:25.918Z,22.33
2019-03-27T02:29:53.327Z,24.60
2019-03-27T02:32:21.120Z,24.53
2019-03-27T02:34:48.199Z,22.80
2019-03-27T02:37:15.607Z,24.37
2019-03-27T02:39:43.053Z,24.00
2019-03-27T02:42:10.460Z,23.50
2019-03-27T02:44:37.874Z,23.57
2019-03-27T02:47:05.316Z,26.50
2019-03-27T02:49:32.718Z,23.13
2019-03-27T02:52:00.146Z,29.43
2019-03-27T02:54:27.583Z,29.57
2019-03-27T02:56:55.044Z,30.17
2019-03-27T02:59:22.475Z,23.10
2019-03-27T03:01:49.896Z,24.80
2019-03-27T03:04:17.321Z,27.30
2019-03-27T03:06:44.736Z,34.30
2019-03-27T03:09:12.176Z,36.00
2019-03-27T03:11:39.615Z,33.20
2019-03-27T03:14:07.055Z,35.77
2019-03-27T03:16:42.356Z,36.80
2019-03-27T03:19:01.911Z,38.53
2019-03-27T03:21:29.353Z,36.00
2019-03-27T03:23:56.783Z,35.20
2019-03-27T03:26:24.212Z,34.77
2019-03-27T03:28:51.656Z,32.30
2019-03-27T03:31:19.062Z,38.43
2019-03-27T03:33:46.470Z,37.83
2019-03-27T03:36:13.914Z,41.30
2019-03-27T03:38:41.329Z,38.17
2019-03-27T03:41:08.757Z,36.87
2019-03-27T03:43:36.168Z,38.27
2019-03-27T03:46:03.600Z,32.40
2019-03-27T03:48:31.029Z,36.53
2019-03-27T03:50:58.480Z,35.47
2019-03-27T03:53:25.878Z,35.03
2019-03-27T03:55:53.327Z,35.43
2019-03-27T03:58:20.734Z,30.73
2019-03-27T04:00:48.161Z,32.50
2019-03-27T04:03:15.604Z,31.67
2019-03-27T04:05:43.021Z,29.90
2019-03-27T04:08:10.584Z,32.97
2019-03-27T04:10:37.875Z,31.00
2019-03-27T04:13:05.347Z,31.57
2019-03-27T04:15:32.753Z,33.53
2019-03-27T04:18:00.182Z,30.60
2019-03-27T04:20:27.637Z,33.30
2019-03-27T04:22:55.045Z,36.03
2019-03-27T04:25:22.516Z,34.17
2019-03-27T04:27:49.941Z,35.03
2019-03-27T04:30:17.362Z,35.67
2019-03-27T04:32:44.772Z,34.07
2019-03-27T04:35:12.181Z,33.17
2019-03-27T04:37:39.626Z,33.93
2019-03-27T04:40:07.029Z,36.33
2019-03-27T04:42:34.466Z,34.17
2019-03-27T04:45:01.896Z,33.90
2019-03-27T04:47:32.356Z,33.77
2019-03-27T04:49:56.746Z,32.80
2019-03-27T04:52:24.160Z,35.73
2019-03-27T04:54:51.594Z,35.93
2019-03-27T04:57:18.998Z,34.20
2019-03-27T04:59:46.439Z,34.70
2019-03-27T05:02:13.853Z,33.23
2019-03-27T05:04:41.289Z,34.17
2019-03-27T05:07:08.697Z,37.53
2019-03-27T05:09:36.133Z,34.67
2019-03-27T05:12:03.570Z,35.30
2019-03-27T05:14:30.987Z,35.90
2019-03-27T05:16:58.425Z,35.10
2019-03-27T05:19:25.834Z,36.13
2019-03-27T05:21:53.280Z,37.40
2019-03-27T05:24:20.686Z,33.40
2019-03-27T05:26:48.093Z,33.03
2019-03-27T05:29:15.542Z,34.50
2019-03-27T05:31:42.974Z,33.53
2019-03-27T05:34:10.412Z,33.37
2019-03-27T05:36:37.837Z,34.97
2019-03-27T05:39:05.234Z,32.90
2019-03-27T05:41:32.673Z,35.93
2019-03-27T05:44:00.096Z,35.30
2019-03-27T05:46:27.497Z,37.50
2019-03-27T05:48:54.929Z,35.37
2019-03-27T05:51:22.342Z,38.10
2019-03-27T05:53:49.783Z,38.10
2019-03-27T05:56:17.192Z,35.33
2019-03-27T05:58:44.620Z,33.43
2019-03-27T06:01:12.028Z,36.57
2019-03-27T06:03:39.464Z,34.80
2019-03-27T06:06:06.886Z,34.70
2019-03-27T06:08:34.323Z,33.70
2019-03-27T06:11:01.734Z,30.87
2019-03-27T06:13:29.151Z,35.13
2019-03-27T06:15:56.600Z,32.63
2019-03-27T06:18:24.007Z,31.20
2019-03-27T06:20:51.443Z,30.47
2019-03-27T06:23:18.867Z,30.07
2019-03-27T06:25:46.293Z,32.53
2019-03-27T06:28:13.691Z,30.40
2019-03-27T06:30:41.137Z,32.70
2019-03-27T06:33:08.550Z,34.30
2019-03-27T06:35:35.978Z,37.07
2019-03-27T06:38:03.424Z,36.40
2019-03-27T06:40:30.822Z,32.03
2019-03-27T06:42:58.273Z,30.40
2019-03-27T06:45:25.688Z,33.10
2019-03-27T06:47:53.118Z,34.13
2019-03-27T06:50:20.539Z,33.10
2019-03-27T06:52:47.977Z,31.33
2019-03-27T06:55:15.407Z,36.03
2019-03-27T06:57:42.853Z,32.43
2019-03-27T07:00:10.272Z,32.10
2019-03-27T07:02:37.688Z,34.70
2019-03-27T07:05:05.128Z,32.90
2019-03-27T07:07:32.547Z,32.77
2019-03-27T07:09:59.980Z,36.47
2019-03-27T07:12:27.415Z,35.47
2019-03-27T07:14:54.840Z,35.00
2019-03-27T07:17:22.271Z,30.37
2019-03-27T07:19:49.694Z,29.90
2019-03-27T07:22:17.123Z,34.70
2019-03-27T07:24:44.563Z,33.47
2019-03-27T07:27:12.007Z,32.00
2019-03-27T07:29:39.434Z,30.30
2019-03-27T07:32:06.886Z,32.23
2019-03-27T07:34:34.304Z,32.47
2019-03-27T07:37:01.716Z,30.10
2019-03-27T07:39:29.150Z,32.83
2019-03-27T07:41:56.594Z,31.83
2019-03-27T07:44:24.016Z,31.83
2019-03-27T07:46:51.426Z,32.03
2019-03-27T07:49:18.873Z,29.97
2019-03-27T07:51:46.314Z,31.37
2019-03-27T07:54:13.747Z,32.40
2019-03-27T07:56:41.185Z,32.47
2019-03-27T07:59:08.597Z,27.67
2019-03-27T08:01:36.076Z,26.20
2019-03-27T08:04:03.466Z,31.17
2019-03-27T08:06:30.931Z,25.37
2019-03-27T08:08:58.351Z,24.00
2019-03-27T08:11:25.879Z,24.17
2019-03-27T08:13:53.232Z,27.17
2019-03-27T08:16:20.636Z,27.87
2019-03-27T08:18:48.078Z,25.67
2019-03-27T08:21:15.510Z,23.70
2019-03-27T08:23:42.936Z,22.67
2019-03-27T08:26:10.350Z,23.67
2019-03-27T08:28:37.786Z,24.40
2019-03-27T08:31:05.197Z,24.67
2019-03-27T08:33:32.747Z,24.30
2019-03-27T08:36:00.213Z,27.57
2019-03-27T08:38:27.599Z,24.07
2019-03-27T08:40:55.037Z,25.10
2019-03-27T08:43:25.546Z,27.23
2019-03-27T08:45:50.466Z,25.07
2019-03-27T08:48:17.875Z,23.27
2019-03-27T08:50:45.309Z,25.00
2019-03-27T08:53:12.743Z,18.90
2019-03-27T08:55:40.176Z,21.23
2019-03-27T08:58:07.602Z,19.47
2019-03-27T09:00:44.035Z,17.33
2019-03-27T09:03:11.475Z,19.03
2019-03-27T09:05:38.879Z,17.23
2019-03-27T09:08:06.326Z,10.90
2019-03-27T09:10:33.735Z,14.37
2019-03-27T09:13:01.202Z,15.77
2019-03-27T09:15:31.393Z,12.73
2019-03-27T09:17:58.842Z,15.70
2019-03-27T09:20:26.240Z,19.08
2019-03-27T09:22:53.658Z,16.13
2019-03-27T09:25:21.096Z,15.83
2019-03-27T09:27:48.508Z,15.70
2019-03-27T09:30:15.944Z,16.03
2019-03-27T09:32:43.363Z,15.07
2019-03-27T09:35:10.778Z,15.93
2019-03-27T09:37:38.221Z,16.87
2019-03-27T09:40:05.625Z,13.97
2019-03-27T09:42:33.037Z,14.90
2019-03-27T09:45:00.493Z,13.23
2019-03-27T09:47:27.892Z,12.80
2019-03-27T09:49:55.949Z,12.27
2019-03-27T09:52:23.371Z,13.90
2019-03-27T09:54:50.798Z,13.63
2019-03-27T09:57:18.204Z,12.00
2019-03-27T09:59:45.640Z,9.37
2019-03-27T10:02:13.055Z,7.87
2019-03-27T10:04:40.467Z,7.90
2019-03-27T10:07:07.877Z,8.77
2019-03-27T10:09:35.316Z,8.07
2019-03-27T10:12:02.746Z,7.77
2019-03-27T10:14:30.155Z,9.57
2019-03-27T10:16:57.587Z,8.50
2019-03-27T10:19:25.006Z,8.20
2019-03-27T10:21:52.418Z,7.83
2019-03-27T10:24:19.831Z,8.33
2019-03-27T10:26:47.254Z,8.67
2019-03-27T10:29:14.660Z,8.90
2019-03-27T10:31:42.094Z,8.93
2019-03-27T10:34:09.499Z,9.57
2019-03-27T10:36:37.026Z,7.90
2019-03-27T10:39:04.421Z,8.67
2019-03-27T10:41:31.837Z,7.40
2019-03-27T10:43:59.265Z,8.97
2019-03-27T10:46:26.724Z,9.60
2019-03-27T10:48:54.125Z,10.80
2019-03-27T10:51:21.555Z,10.13
2019-03-27T10:53:48.983Z,9.87
2019-03-27T10:56:16.411Z,10.40
2019-03-27T10:58:43.868Z,9.00
2019-03-27T11:01:11.264Z,8.50
2019-03-27T11:03:38.691Z,6.27
2019-03-27T11:06:06.113Z,6.03
2019-03-27T11:08:33.535Z,5.43
2019-03-27T11:11:00.947Z,6.30
2019-03-27T11:13:28.366Z,5.90
2019-03-27T11:15:55.790Z,6.50
2019-03-27T11:18:23.183Z,6.67
2019-03-27T11:20:50.637Z,6.83
2019-03-27T11:23:19.546Z,6.53
2019-03-27T11:25:46.919Z,5.27
2019-03-27T11:28:14.323Z,5.07
2019-03-27T11:30:41.745Z,5.70
2019-03-27T11:33:09.322Z,6.00
2019-03-27T11:35:36.583Z,5.33
2019-03-27T11:38:04.015Z,5.10
2019-03-27T11:40:31.442Z,5.33
2019-03-27T11:42:58.862Z,6.07
2019-03-27T11:45:26.288Z,6.17
2019-03-27T11:47:53.710Z,5.90
2019-03-27T11:50:21.145Z,6.10
2019-03-27T11:52:48.567Z,6.57
2019-03-27T11:55:15.971Z,6.47
2019-03-27T11:57:43.414Z,6.10
2019-03-27T12:00:10.818Z,6.00
2019-03-27T12:02:38.299Z,6.20
2019-03-27T12:05:05.679Z,6.83
2019-03-27T12:07:33.098Z,6.57
2019-03-27T12:10:00.536Z,7.03
2019-03-27T12:12:27.970Z,6.80
2019-03-27T12:14:55.401Z,6.87
2019-03-27T12:17:22.793Z,7.90
2019-03-27T12:19:50.233Z,7.83
2019-03-27T12:22:17.643Z,8.27
2019-03-27T12:24:45.101Z,7.53
2019-03-27T12:27:12.533Z,7.57
2019-03-27T12:29:39.929Z,8.03
2019-03-27T12:32:07.391Z,7.23
2019-03-27T12:34:36.863Z,8.47
2019-03-27T12:37:02.283Z,8.67
2019-03-27T12:39:29.724Z,9.23
2019-03-27T12:41:57.144Z,8.43
2019-03-27T12:44:24.547Z,8.27
2019-03-27T12:46:52.140Z,8.13
2019-03-27T12:49:19.380Z,8.37
2019-03-27T12:51:46.817Z,9.40
2019-03-27T12:54:14.213Z,8.93
2019-03-27T12:56:41.655Z,8.00
2019-03-27T12:59:09.066Z,8.20
2019-03-27T13:01:36.497Z,8.67
2019-03-27T13:04:03.928Z,8.17
2019-03-27T13:06:31.354Z,7.60
2019-03-27T13:08:58.768Z,8.33
2019-03-27T13:11:26.262Z,7.07
2019-03-27T13:13:53.603Z,7.67
2019-03-27T13:16:21.058Z,8.23
2019-03-27T13:18:48.458Z,8.02
2019-03-27T13:21:25.731Z,8.77
2019-03-27T13:23:43.308Z,8.17
2019-03-27T13:26:10.742Z,8.80
2019-03-27T13:28:48.228Z,7.87
2019-03-27T13:31:05.595Z,7.77
2019-03-27T13:33:33.023Z,8.87
2019-03-27T13:36:00.441Z,8.37
2019-03-27T13:38:27.886Z,8.60
2019-03-27T13:40:55.293Z,7.73
2019-03-27T13:43:22.704Z,8.40
2019-03-27T13:45:50.166Z,8.43
2019-03-27T13:48:17.618Z,8.57
2019-03-27T13:50:45.043Z,7.90
2019-03-27T13:53:12.469Z,8.20
2019-03-27T13:55:39.880Z,6.90
2019-03-27T13:58:07.317Z,7.83
2019-03-27T14:00:34.743Z,6.23
2019-03-27T14:03:02.177Z,6.63
2019-03-27T14:05:29.603Z,6.97
2019-03-27T14:07:57.004Z,7.03
2019-03-27T14:10:24.425Z,6.50
2019-03-27T14:12:51.862Z,6.33
2019-03-27T14:15:19.289Z,6.60
2019-03-27T14:17:46.724Z,9.17
2019-03-27T14:20:14.156Z,6.30
2019-03-27T14:22:41.563Z,6.37
2019-03-27T14:25:08.993Z,6.40
2019-03-27T14:27:36.433Z,6.53
2019-03-27T14:30:03.843Z,8.30
2019-03-27T14:32:31.239Z,6.40
2019-03-27T14:34:58.687Z,6.57
2019-03-27T14:37:26.150Z,6.80
2019-03-27T14:39:53.561Z,6.23
2019-03-27T14:42:21.005Z,5.40
2019-03-27T14:44:48.421Z,6.03
2019-03-27T14:47:15.839Z,6.13
2019-03-27T14:49:43.236Z,5.80
2019-03-27T14:52:10.698Z,5.87
2019-03-27T14:54:38.114Z,5.93
2019-03-27T14:57:05.530Z,6.10
2019-03-27T14:59:32.968Z,5.97
2019-03-27T15:02:00.368Z,6.03
2019-03-27T15:04:27.809Z,5.70
2019-03-27T15:06:55.236Z,5.70
2019-03-27T15:09:22.638Z,6.23
2019-03-27T15:11:50.068Z,6.37
2019-03-27T15:14:17.536Z,6.27
2019-03-27T15:16:44.895Z,6.20
2019-03-27T15:19:12.340Z,7.30
2019-03-27T15:21:39.763Z,6.70
2019-03-27T15:24:07.175Z,7.13
2019-03-27T15:26:34.614Z,7.37
2019-03-27T15:29:02.034Z,6.93
2019-03-27T15:31:29.474Z,6.80
2019-03-27T15:33:56.869Z,7.43
2019-03-27T15:36:24.279Z,7.30
2019-03-27T15:38:51.721Z,7.40
2019-03-27T15:41:19.151Z,7.23
2019-03-27T15:43:46.580Z,7.60
2019-03-27T15:46:14.023Z,7.77
2019-03-27T15:48:41.434Z,8.43
2019-03-27T15:51:08.865Z,8.83
2019-03-27T15:53:36.285Z,8.00
2019-03-27T15:56:03.722Z,7.83
2019-03-27T15:58:31.139Z,8.43
2019-03-27T16:00:58.575Z,8.17
2019-03-27T16:03:25.996Z,7.40
2019-03-27T16:05:53.401Z,7.27
2019-03-27T16:08:20.839Z,7.50
2019-03-27T16:10:48.277Z,8.03
2019-03-27T16:13:15.701Z,9.57
2019-03-27T16:15:43.128Z,8.83
2019-03-27T16:18:10.574Z,11.23
2019-03-27T16:20:37.975Z,9.20
2019-03-27T16:23:05.399Z,8.73
2019-03-27T16:25:32.800Z,8.37
2019-03-27T16:28:00.312Z,9.33
2019-03-27T16:30:27.649Z,8.37
2019-03-27T16:32:55.080Z,8.33
2019-03-27T16:35:22.485Z,9.30
2019-03-27T16:37:49.926Z,8.63
2019-03-27T16:40:17.378Z,10.00
2019-03-27T16:42:44.778Z,9.43
2019-03-27T16:45:12.205Z,8.83
2019-03-27T16:47:39.634Z,9.20
2019-03-27T16:50:07.032Z,8.53
2019-03-27T16:52:34.503Z,8.73
2019-03-27T16:55:01.917Z,10.30
2019-03-27T16:57:29.321Z,13.87
2019-03-27T16:59:56.745Z,9.70
2019-03-27T17:02:24.162Z,10.30
2019-03-27T17:04:51.586Z,9.90
2019-03-27T17:07:19.060Z,9.80
2019-03-27T17:09:46.537Z,10.13
2019-03-27T17:12:13.905Z,9.97
2019-03-27T17:14:41.343Z,9.50
2019-03-27T17:17:08.766Z,10.17
2019-03-27T17:19:36.195Z,9.03
2019-03-27T17:22:03.630Z,9.80
2019-03-27T17:24:31.055Z,8.87
2019-03-27T17:26:58.465Z,10.10
2019-03-27T17:29:25.914Z,9.90
2019-03-27T17:31:53.334Z,8.93
2019-03-27T17:34:20.765Z,9.07
2019-03-27T17:36:48.185Z,9.83
2019-03-27T17:39:15.636Z,9.10
2019-03-27T17:41:43.045Z,9.73
2019-03-27T17:44:10.464Z,9.20
2019-03-27T17:46:37.888Z,9.30
2019-03-27T17:49:05.302Z,8.90
2019-03-27T17:51:32.742Z,9.43
2019-03-27T17:54:00.156Z,9.77
2019-03-27T17:56:27.565Z,11.40
2019-03-27T17:58:55.018Z,10.30
2019-03-27T18:01:22.440Z,9.93
2019-03-27T18:03:49.877Z,11.07
2019-03-27T18:06:17.331Z,10.20
2019-03-27T18:08:44.777Z,10.87
2019-03-27T18:11:12.186Z,10.33
2019-03-27T18:13:39.622Z,10.57
2019-03-27T18:16:07.042Z,10.53
2019-03-27T18:18:34.495Z,11.33
2019-03-27T18:21:01.921Z,10.17
2019-03-27T18:23:29.337Z,10.77
2019-03-27T18:25:56.788Z,11.00
2019-03-27T18:28:24.199Z,10.53
2019-03-27T18:30:51.610Z,11.23
2019-03-27T18:33:19.047Z,11.27
2019-03-27T18:35:46.466Z,10.50
2019-03-27T18:38:13.899Z,10.57
2019-03-27T18:40:41.310Z,10.13
2019-03-27T18:43:08.763Z,11.73
2019-03-27T18:45:36.162Z,15.03
2019-03-27T18:48:03.596Z,16.87
2019-03-27T18:50:31.023Z,13.57
2019-03-27T18:52:58.460Z,14.90
2019-03-27T18:55:27.139Z,14.27
2019-03-27T18:57:59.920Z,15.07
2019-03-27T19:00:20.744Z,13.13
2019-03-27T19:02:48.160Z,11.70
2019-03-27T19:05:15.578Z,12.93
2019-03-27T19:07:43.012Z,11.70
2019-03-27T19:10:10.425Z,12.80
2019-03-27T19:12:37.877Z,13.17
2019-03-27T19:15:07.958Z,12.43
2019-03-27T19:17:35.492Z,14.27
2019-03-27T19:20:02.905Z,14.73
2019-03-27T19:22:30.340Z,14.70
2019-03-27T19:24:57.845Z,15.70
2019-03-27T19:27:25.296Z,16.07
2019-03-27T19:29:52.678Z,16.33
2019-03-27T19:32:20.116Z,15.90
2019-03-27T19:34:47.890Z,15.60
2019-03-27T19:37:14.993Z,17.50
2019-03-27T19:39:42.413Z,15.70
2019-03-27T19:42:09.885Z,15.87
2019-03-27T19:44:37.316Z,16.40
2019-03-27T19:47:04.766Z,18.03
2019-03-27T19:49:32.178Z,17.67
2019-03-27T19:51:59.651Z,16.80
2019-03-27T19:54:27.662Z,16.53
2019-03-27T19:56:54.568Z,16.20
2019-03-27T19:59:22.105Z,16.90
2019-03-27T20:01:49.523Z,17.53
2019-03-27T20:04:16.961Z,16.90
2019-03-27T20:06:44.428Z,16.27
2019-03-27T20:09:11.858Z,17.13
2019-03-27T20:11:39.324Z,16.67
2019-03-27T20:14:06.797Z,16.97
2019-03-27T20:16:34.217Z,15.90
2019-03-27T20:19:01.677Z,17.80
2019-03-27T20:21:29.124Z,16.43
2019-03-27T20:23:56.536Z,18.20
2019-03-27T20:26:23.967Z,17.43
2019-03-27T20:28:51.684Z,17.63
2019-03-27T20:31:19.111Z,18.90
2019-03-27T20:33:46.540Z,18.77
2019-03-27T20:36:13.951Z,17.60
2019-03-27T20:38:41.399Z,23.70
2019-03-27T20:41:08.809Z,20.53
2019-03-27T20:43:36.278Z,20.97
2019-03-27T20:46:03.710Z,20.60
2019-03-27T20:48:31.128Z,20.97
2019-03-27T20:50:58.569Z,19.00
2019-03-27T20:53:26.010Z,20.83
2019-03-27T20:55:53.471Z,19.80
2019-03-27T20:58:20.961Z,19.57
2019-03-27T21:00:48.403Z,18.67
2019-03-27T21:03:15.870Z,19.87
2019-03-27T21:05:43.277Z,17.57
2019-03-27T21:08:10.710Z,16.73
2019-03-27T21:10:38.121Z,16.30
2019-03-27T21:13:05.583Z,15.87
2019-03-27T21:15:32.994Z,16.57
2019-03-27T21:18:00.440Z,16.10
2019-03-27T21:20:27.861Z,16.50
2019-03-27T21:22:55.302Z,16.30
2019-03-27T21:25:22.711Z,15.43
2019-03-27T21:27:50.152Z,15.50
2019-03-27T21:30:17.624Z,15.80
2019-03-27T21:32:45.140Z,13.57
2019-03-27T21:35:12.612Z,12.80
2019-03-27T21:37:40.095Z,12.30
2019-03-27T21:40:07.625Z,12.43
2019-03-27T21:42:35.106Z,11.30
2019-03-27T21:45:02.729Z,11.60
2019-03-27T21:47:30.224Z,11.73
2019-03-27T21:49:57.679Z,10.70
2019-03-27T21:52:25.190Z,10.80
2019-03-27T21:54:52.700Z,11.37
2019-03-27T21:57:20.230Z,9.93
2019-03-27T21:59:47.837Z,9.53
2019-03-27T22:02:15.219Z,8.83
2019-03-27T22:04:42.713Z,8.63
2019-03-27T22:07:10.171Z,8.00
2019-03-27T22:09:37.663Z,8.10
2019-03-27T22:12:05.154Z,8.07
2019-03-27T22:14:32.644Z,8.10
2019-03-27T22:17:00.313Z,8.20
2019-03-27T22:19:27.678Z,7.80
2019-03-27T22:21:55.210Z,8.07
2019-03-27T22:24:22.733Z,8.40
2019-03-27T22:26:50.289Z,8.80
2019-03-27T22:29:17.757Z,8.13
2019-03-27T22:31:45.236Z,8.03
2019-03-27T22:34:12.715Z,9.10
2019-03-27T22:36:40.200Z,8.53
2019-03-27T22:39:07.659Z,8.70
2019-03-27T22:41:35.124Z,8.53
2019-03-27T22:44:02.616Z,8.80
2019-03-27T22:46:30.108Z,8.73
2019-03-27T22:48:57.564Z,8.70
2019-03-27T22:51:25.156Z,9.17
2019-03-27T22:53:52.648Z,9.20
2019-03-27T22:56:20.114Z,9.20
2019-03-27T22:58:47.587Z,9.40
2019-03-27T23:01:15.043Z,10.23
2019-03-27T23:03:42.525Z,10.57
2019-03-27T23:06:09.990Z,11.10
2019-03-27T23:08:37.483Z,10.83
2019-03-27T23:11:04.971Z,10.73
2019-03-27T23:13:32.447Z,10.67
2019-03-27T23:15:59.920Z,9.63
2019-03-27T23:18:27.380Z,10.00
2019-03-27T23:20:54.869Z,10.80
2019-03-27T23:23:22.325Z,11.03
2019-03-27T23:26:02.191Z,10.07
2019-03-27T23:28:17.281Z,10.53
2019-03-27T23:30:44.764Z,9.97
2019-03-27T23:33:12.252Z,10.50
2019-03-27T23:35:39.745Z,10.57
2019-03-27T23:38:07.217Z,9.60
2019-03-27T23:40:34.683Z,10.70
2019-03-27T23:43:02.160Z,10.80
2019-03-27T23:45:29.626Z,9.87
2019-03-27T23:47:57.165Z,10.07
2019-03-27T23:50:24.650Z,11.07
2019-03-27T23:52:52.118Z,10.83
2019-03-27T23:55:19.607Z,10.87
2019-03-27T23:57:47.071Z,11.97
